sensor_id;sensor_type;location;lat;lon;timestamp;P1;durP1;ratioP1;P2;durP2;ratioP2
18100;SDS011;9177;49.156;8.142;2022-08-19T00:01:55;13.48;;;12.30;;
18100;SDS011;9177;49.156;8.142;2022-08-19T00:04:26;14.02;;;12.85;;
18100;SDS011;9177;49.156;8.142;2022-08-19T00:06:56;13.63;;;12.57;;
18100;SDS011;9177;49.156;8.142;2022-08-19T00:09:24;13.25;;;12.15;;
18100;SDS011;9177;49.156;8.142;2022-08-19T00:11:53;12.80;;;11.80;;
18100;SDS011;9177;49.156;8.142;2022-08-19T00:14:21;14.05;;;12.85;;
18100;SDS011;9177;49.156;8.142;2022-08-19T00:16:49;13.52;;;12.52;;
18100;SDS011;9177;49.156;8.142;2022-08-19T00:19:19;13.18;;;12.15;;
18100;SDS011;9177;49.156;8.142;2022-08-19T00:21:46;14.13;;;13.02;;
18100;SDS011;9177;49.156;8.142;2022-08-19T00:24:14;12.75;;;11.77;;
18100;SDS011;9177;49.156;8.142;2022-08-19T00:26:41;13.45;;;12.35;;
18100;SDS011;9177;49.156;8.142;2022-08-19T00:29:11;13.25;;;12.15;;
18100;SDS011;9177;49.156;8.142;2022-08-19T00:31:39;13.88;;;12.77;;
18100;SDS011;9177;49.156;8.142;2022-08-19T00:34:08;13.25;;;12.15;;
18100;SDS011;9177;49.156;8.142;2022-08-19T00:36:35;13.20;;;12.20;;
18100;SDS011;9177;49.156;8.142;2022-08-19T00:39:02;13.82;;;12.77;;
18100;SDS011;9177;49.156;8.142;2022-08-19T00:41:31;13.02;;;12.00;;
18100;SDS011;9177;49.156;8.142;2022-08-19T00:43:59;13.65;;;12.60;;
18100;SDS011;9177;49.156;8.142;2022-08-19T00:46:29;13.35;;;12.35;;
18100;SDS011;9177;49.156;8.142;2022-08-19T00:48:57;13.63;;;12.55;;
18100;SDS011;9177;49.156;8.142;2022-08-19T00:51:26;13.40;;;12.40;;
18100;SDS011;9177;49.156;8.142;2022-08-19T00:53:57;13.13;;;12.13;;
18100;SDS011;9177;49.156;8.142;2022-08-19T00:56:26;14.32;;;13.15;;
18100;SDS011;9177;49.156;8.142;2022-08-19T00:58:55;13.50;;;12.48;;
18100;SDS011;9177;49.156;8.142;2022-08-19T01:01:27;13.70;;;12.70;;
18100;SDS011;9177;49.156;8.142;2022-08-19T01:03:54;13.45;;;12.38;;
18100;SDS011;9177;49.156;8.142;2022-08-19T01:06:23;13.80;;;12.70;;
18100;SDS011;9177;49.156;8.142;2022-08-19T01:08:51;13.80;;;12.80;;
18100;SDS011;9177;49.156;8.142;2022-08-19T01:11:18;13.38;;;12.35;;
18100;SDS011;9177;49.156;8.142;2022-08-19T01:13:44;13.98;;;12.98;;
18100;SDS011;9177;49.156;8.142;2022-08-19T01:16:13;13.15;;;12.05;;
18100;SDS011;9177;49.156;8.142;2022-08-19T01:18:41;13.65;;;12.63;;
18100;SDS011;9177;49.156;8.142;2022-08-19T01:21:09;13.75;;;12.68;;
18100;SDS011;9177;49.156;8.142;2022-08-19T01:23:48;13.82;;;12.82;;
18100;SDS011;9177;49.156;8.142;2022-08-19T01:26:16;13.63;;;12.63;;
18100;SDS011;9177;49.156;8.142;2022-08-19T01:28:47;13.10;;;12.00;;
18100;SDS011;9177;49.156;8.142;2022-08-19T01:31:19;14.38;;;13.27;;
18100;SDS011;9177;49.156;8.142;2022-08-19T01:33:50;13.00;;;12.02;;
18100;SDS011;9177;49.156;8.142;2022-08-19T01:36:22;14.02;;;12.93;;
18100;SDS011;9177;49.156;8.142;2022-08-19T01:38:52;13.52;;;12.52;;
18100;SDS011;9177;49.156;8.142;2022-08-19T01:41:20;13.88;;;12.77;;
18100;SDS011;9177;49.156;8.142;2022-08-19T01:43:48;14.40;;;13.30;;
18100;SDS011;9177;49.156;8.142;2022-08-19T01:46:16;13.20;;;12.25;;
18100;SDS011;9177;49.156;8.142;2022-08-19T01:48:43;12.93;;;11.93;;
18100;SDS011;9177;49.156;8.142;2022-08-19T01:51:20;14.25;;;13.13;;
18100;SDS011;9177;49.156;8.142;2022-08-19T01:53:47;14.05;;;12.95;;
18100;SDS011;9177;49.156;8.142;2022-08-19T01:56:16;13.93;;;12.82;;
18100;SDS011;9177;49.156;8.142;2022-08-19T01:58:45;13.27;;;12.27;;
18100;SDS011;9177;49.156;8.142;2022-08-19T02:01:16;14.00;;;12.90;;
18100;SDS011;9177;49.156;8.142;2022-08-19T02:03:43;14.30;;;13.20;;
18100;SDS011;9177;49.156;8.142;2022-08-19T02:06:11;14.30;;;13.20;;
18100;SDS011;9177;49.156;8.142;2022-08-19T02:08:38;14.02;;;12.93;;
18100;SDS011;9177;49.156;8.142;2022-08-19T02:11:06;13.48;;;12.48;;
18100;SDS011;9177;49.156;8.142;2022-08-19T02:13:34;13.20;;;12.20;;
18100;SDS011;9177;49.156;8.142;2022-08-19T02:16:02;13.38;;;12.38;;
18100;SDS011;9177;49.156;8.142;2022-08-19T02:18:29;13.98;;;12.98;;
18100;SDS011;9177;49.156;8.142;2022-08-19T02:20:56;13.52;;;12.52;;
18100;SDS011;9177;49.156;8.142;2022-08-19T02:23:23;14.13;;;13.02;;
18100;SDS011;9177;49.156;8.142;2022-08-19T02:25:51;13.35;;;12.35;;
18100;SDS011;9177;49.156;8.142;2022-08-19T02:28:18;13.80;;;12.80;;
18100;SDS011;9177;49.156;8.142;2022-08-19T02:30:47;13.68;;;12.57;;
18100;SDS011;9177;49.156;8.142;2022-08-19T02:33:14;14.10;;;13.00;;
18100;SDS011;9177;49.156;8.142;2022-08-19T02:35:41;13.48;;;12.38;;
18100;SDS011;9177;49.156;8.142;2022-08-19T02:38:09;13.10;;;12.20;;
18100;SDS011;9177;49.156;8.142;2022-08-19T02:40:55;13.88;;;12.88;;
18100;SDS011;9177;49.156;8.142;2022-08-19T02:43:22;14.02;;;13.02;;
18100;SDS011;9177;49.156;8.142;2022-08-19T02:45:52;13.68;;;12.68;;
18100;SDS011;9177;49.156;8.142;2022-08-19T02:48:20;13.43;;;12.43;;
18100;SDS011;9177;49.156;8.142;2022-08-19T02:50:51;12.82;;;11.93;;
18100;SDS011;9177;49.156;8.142;2022-08-19T02:53:20;13.43;;;12.43;;
18100;SDS011;9177;49.156;8.142;2022-08-19T02:55:47;13.18;;;12.18;;
18100;SDS011;9177;49.156;8.142;2022-08-19T02:58:16;13.80;;;12.75;;
18100;SDS011;9177;49.156;8.142;2022-08-19T03:00:44;13.82;;;12.82;;
18100;SDS011;9177;49.156;8.142;2022-08-19T03:03:15;14.57;;;13.48;;
18100;SDS011;9177;49.156;8.142;2022-08-19T03:05:42;14.07;;;13.10;;
18100;SDS011;9177;49.156;8.142;2022-08-19T03:08:09;13.30;;;12.30;;
18100;SDS011;9177;49.156;8.142;2022-08-19T03:10:40;14.32;;;13.10;;
18100;SDS011;9177;49.156;8.142;2022-08-19T03:13:11;14.07;;;12.98;;
18100;SDS011;9177;49.156;8.142;2022-08-19T03:15:40;13.75;;;12.75;;
18100;SDS011;9177;49.156;8.142;2022-08-19T03:18:08;14.25;;;13.20;;
18100;SDS011;9177;49.156;8.142;2022-08-19T03:20:40;13.63;;;12.52;;
18100;SDS011;9177;49.156;8.142;2022-08-19T03:23:08;13.40;;;12.40;;
18100;SDS011;9177;49.156;8.142;2022-08-19T03:25:36;13.80;;;12.70;;
18100;SDS011;9177;49.156;8.142;2022-08-19T03:28:05;13.48;;;12.48;;
18100;SDS011;9177;49.156;8.142;2022-08-19T03:30:32;14.43;;;13.32;;
18100;SDS011;9177;49.156;8.142;2022-08-19T03:32:59;13.13;;;12.18;;
18100;SDS011;9177;49.156;8.142;2022-08-19T03:35:27;13.20;;;12.25;;
18100;SDS011;9177;49.156;8.142;2022-08-19T03:37:55;13.45;;;12.43;;
18100;SDS011;9177;49.156;8.142;2022-08-19T03:40:24;13.70;;;12.70;;
18100;SDS011;9177;49.156;8.142;2022-08-19T03:42:51;13.45;;;12.45;;
18100;SDS011;9177;49.156;8.142;2022-08-19T03:45:17;13.23;;;12.23;;
18100;SDS011;9177;49.156;8.142;2022-08-19T03:47:44;13.63;;;12.52;;
18100;SDS011;9177;49.156;8.142;2022-08-19T03:50:11;14.05;;;12.95;;
18100;SDS011;9177;49.156;8.142;2022-08-19T03:52:38;14.10;;;13.07;;
18100;SDS011;9177;49.156;8.142;2022-08-19T03:55:07;12.80;;;11.90;;
18100;SDS011;9177;49.156;8.142;2022-08-19T03:57:34;13.45;;;12.45;;
18100;SDS011;9177;49.156;8.142;2022-08-19T04:00:03;13.57;;;12.57;;
18100;SDS011;9177;49.156;8.142;2022-08-19T04:02:31;13.25;;;12.25;;
18100;SDS011;9177;49.156;8.142;2022-08-19T04:04:58;12.68;;;11.77;;
18100;SDS011;9177;49.156;8.142;2022-08-19T04:07:25;14.18;;;12.98;;
18100;SDS011;9177;49.156;8.142;2022-08-19T04:09:52;13.40;;;12.50;;
18100;SDS011;9177;49.156;8.142;2022-08-19T04:12:21;13.65;;;12.65;;
18100;SDS011;9177;49.156;8.142;2022-08-19T04:14:47;13.95;;;12.95;;
18100;SDS011;9177;49.156;8.142;2022-08-19T04:17:14;13.82;;;12.82;;
18100;SDS011;9177;49.156;8.142;2022-08-19T04:19:41;14.02;;;13.00;;
18100;SDS011;9177;49.156;8.142;2022-08-19T04:22:08;13.95;;;12.95;;
18100;SDS011;9177;49.156;8.142;2022-08-19T04:24:36;13.73;;;12.57;;
18100;SDS011;9177;49.156;8.142;2022-08-19T04:27:03;12.75;;;11.82;;
18100;SDS011;9177;49.156;8.142;2022-08-19T04:29:33;14.32;;;13.23;;
18100;SDS011;9177;49.156;8.142;2022-08-19T04:32:04;13.30;;;12.30;;
18100;SDS011;9177;49.156;8.142;2022-08-19T04:34:31;14.13;;;12.98;;
18100;SDS011;9177;49.156;8.142;2022-08-19T04:36:58;13.90;;;12.90;;
18100;SDS011;9177;49.156;8.142;2022-08-19T04:39:26;13.52;;;12.60;;
18100;SDS011;9177;49.156;8.142;2022-08-19T04:42:08;13.68;;;12.55;;
18100;SDS011;9177;49.156;8.142;2022-08-19T04:44:54;13.40;;;12.50;;
18100;SDS011;9177;49.156;8.142;2022-08-19T04:47:21;13.43;;;12.38;;
18100;SDS011;9177;49.156;8.142;2022-08-19T04:49:48;12.57;;;11.60;;
18100;SDS011;9177;49.156;8.142;2022-08-19T04:52:15;12.75;;;11.75;;
18100;SDS011;9177;49.156;8.142;2022-08-19T04:54:42;11.77;;;10.93;;
18100;SDS011;9177;49.156;8.142;2022-08-19T04:57:09;12.35;;;11.45;;
18100;SDS011;9177;49.156;8.142;2022-08-19T04:59:36;11.15;;;10.35;;
18100;SDS011;9177;49.156;8.142;2022-08-19T05:02:06;12.10;;;11.15;;
18100;SDS011;9177;49.156;8.142;2022-08-19T05:04:34;11.45;;;10.65;;
18100;SDS011;9177;49.156;8.142;2022-08-19T05:07:03;11.65;;;10.75;;
18100;SDS011;9177;49.156;8.142;2022-08-19T05:09:31;11.68;;;10.88;;
18100;SDS011;9177;49.156;8.142;2022-08-19T05:11:57;11.25;;;10.40;;
18100;SDS011;9177;49.156;8.142;2022-08-19T05:14:25;11.23;;;10.43;;
18100;SDS011;9177;49.156;8.142;2022-08-19T05:16:52;11.13;;;10.30;;
18100;SDS011;9177;49.156;8.142;2022-08-19T05:19:20;10.90;;;10.13;;
18100;SDS011;9177;49.156;8.142;2022-08-19T05:22:04;10.50;;;9.63;;
18100;SDS011;9177;49.156;8.142;2022-08-19T05:24:49;11.07;;;10.30;;
18100;SDS011;9177;49.156;8.142;2022-08-19T05:27:15;10.25;;;9.48;;
18100;SDS011;9177;49.156;8.142;2022-08-19T05:29:42;9.85;;;9.15;;
18100;SDS011;9177;49.156;8.142;2022-08-19T05:32:09;10.30;;;9.50;;
18100;SDS011;9177;49.156;8.142;2022-08-19T05:34:37;9.98;;;9.27;;
18100;SDS011;9177;49.156;8.142;2022-08-19T05:37:05;10.32;;;9.63;;
18100;SDS011;9177;49.156;8.142;2022-08-19T05:39:34;9.93;;;9.23;;
18100;SDS011;9177;49.156;8.142;2022-08-19T05:42:02;10.20;;;9.40;;
18100;SDS011;9177;49.156;8.142;2022-08-19T05:44:32;8.85;;;8.23;;
18100;SDS011;9177;49.156;8.142;2022-08-19T05:47:02;9.45;;;8.85;;
18100;SDS011;9177;49.156;8.142;2022-08-19T05:49:31;9.00;;;8.40;;
18100;SDS011;9177;49.156;8.142;2022-08-19T05:52:03;9.98;;;9.27;;
18100;SDS011;9177;49.156;8.142;2022-08-19T05:54:32;9.07;;;8.48;;
18100;SDS011;9177;49.156;8.142;2022-08-19T05:57:01;9.63;;;8.90;;
18100;SDS011;9177;49.156;8.142;2022-08-19T05:59:28;9.05;;;8.45;;
18100;SDS011;9177;49.156;8.142;2022-08-19T06:01:58;9.55;;;8.85;;
18100;SDS011;9177;49.156;8.142;2022-08-19T06:04:28;9.20;;;8.55;;
18100;SDS011;9177;49.156;8.142;2022-08-19T06:06:55;10.07;;;9.38;;
18100;SDS011;9177;49.156;8.142;2022-08-19T06:09:24;9.10;;;8.40;;
18100;SDS011;9177;49.156;8.142;2022-08-19T06:11:53;9.20;;;8.57;;
18100;SDS011;9177;49.156;8.142;2022-08-19T06:14:27;9.20;;;8.50;;
18100;SDS011;9177;49.156;8.142;2022-08-19T06:16:56;8.63;;;8.02;;
18100;SDS011;9177;49.156;8.142;2022-08-19T06:19:27;9.23;;;8.55;;
18100;SDS011;9177;49.156;8.142;2022-08-19T06:21:55;8.80;;;8.15;;
18100;SDS011;9177;49.156;8.142;2022-08-19T06:24:26;8.45;;;7.75;;
18100;SDS011;9177;49.156;8.142;2022-08-19T06:26:55;8.40;;;7.80;;
18100;SDS011;9177;49.156;8.142;2022-08-19T06:29:24;8.68;;;8.07;;
18100;SDS011;9177;49.156;8.142;2022-08-19T06:31:54;9.68;;;8.98;;
18100;SDS011;9177;49.156;8.142;2022-08-19T06:34:23;8.95;;;8.30;;
18100;SDS011;9177;49.156;8.142;2022-08-19T06:36:51;9.05;;;8.45;;
18100;SDS011;9177;49.156;8.142;2022-08-19T06:39:19;10.40;;;9.70;;
18100;SDS011;9177;49.156;8.142;2022-08-19T06:41:49;9.27;;;8.68;;
18100;SDS011;9177;49.156;8.142;2022-08-19T06:44:19;9.50;;;8.80;;
18100;SDS011;9177;49.156;8.142;2022-08-19T06:46:48;10.40;;;9.60;;
18100;SDS011;9177;49.156;8.142;2022-08-19T06:49:15;10.52;;;9.82;;
18100;SDS011;9177;49.156;8.142;2022-08-19T06:51:43;11.55;;;10.65;;
18100;SDS011;9177;49.156;8.142;2022-08-19T06:54:12;11.20;;;10.40;;
18100;SDS011;9177;49.156;8.142;2022-08-19T06:56:40;11.10;;;10.30;;
18100;SDS011;9177;49.156;8.142;2022-08-19T06:59:12;11.20;;;10.35;;
18100;SDS011;9177;49.156;8.142;2022-08-19T07:01:41;10.60;;;9.80;;
18100;SDS011;9177;49.156;8.142;2022-08-19T07:04:10;11.00;;;10.00;;
18100;SDS011;9177;49.156;8.142;2022-08-19T07:06:38;10.07;;;9.38;;
18100;SDS011;9177;49.156;8.142;2022-08-19T07:09:06;10.18;;;9.38;;
18100;SDS011;9177;49.156;8.142;2022-08-19T07:11:34;9.60;;;8.80;;
18100;SDS011;9177;49.156;8.142;2022-08-19T07:14:02;9.43;;;8.70;;
18100;SDS011;9177;49.156;8.142;2022-08-19T07:16:33;9.65;;;8.95;;
18100;SDS011;9177;49.156;8.142;2022-08-19T07:19:00;9.52;;;8.82;;
18100;SDS011;9177;49.156;8.142;2022-08-19T07:21:27;9.10;;;8.50;;
18100;SDS011;9177;49.156;8.142;2022-08-19T07:23:55;9.60;;;8.80;;
18100;SDS011;9177;49.156;8.142;2022-08-19T07:26:24;8.90;;;8.30;;
18100;SDS011;9177;49.156;8.142;2022-08-19T07:28:52;9.05;;;8.45;;
18100;SDS011;9177;49.156;8.142;2022-08-19T07:31:20;9.98;;;9.27;;
18100;SDS011;9177;49.156;8.142;2022-08-19T07:33:51;9.50;;;8.80;;
18100;SDS011;9177;49.156;8.142;2022-08-19T07:36:22;10.57;;;9.68;;
18100;SDS011;9177;49.156;8.142;2022-08-19T07:38:50;10.40;;;9.50;;
18100;SDS011;9177;49.156;8.142;2022-08-19T07:41:20;9.10;;;8.40;;
18100;SDS011;9177;49.156;8.142;2022-08-19T07:43:49;9.02;;;8.32;;
18100;SDS011;9177;49.156;8.142;2022-08-19T07:46:17;8.30;;;7.63;;
18100;SDS011;9177;49.156;8.142;2022-08-19T07:48:45;8.05;;;7.45;;
18100;SDS011;9177;49.156;8.142;2022-08-19T07:51:16;7.95;;;7.18;;
18100;SDS011;9177;49.156;8.142;2022-08-19T07:53:45;7.10;;;6.50;;
18100;SDS011;9177;49.156;8.142;2022-08-19T07:56:13;7.03;;;6.43;;
18100;SDS011;9177;49.156;8.142;2022-08-19T07:58:43;7.10;;;6.50;;
18100;SDS011;9177;49.156;8.142;2022-08-19T08:01:13;7.47;;;6.80;;
18100;SDS011;9177;49.156;8.142;2022-08-19T08:03:42;6.75;;;6.25;;
18100;SDS011;9177;49.156;8.142;2022-08-19T08:06:29;5.90;;;5.50;;
18100;SDS011;9177;49.156;8.142;2022-08-19T08:09:15;5.88;;;5.47;;
18100;SDS011;9177;49.156;8.142;2022-08-19T08:11:47;6.05;;;5.55;;
18100;SDS011;9177;49.156;8.142;2022-08-19T08:14:16;5.75;;;5.35;;
18100;SDS011;9177;49.156;8.142;2022-08-19T08:16:46;6.40;;;5.90;;
18100;SDS011;9177;49.156;8.142;2022-08-19T08:19:16;6.85;;;6.18;;
18100;SDS011;9177;49.156;8.142;2022-08-19T08:21:46;6.70;;;6.10;;
18100;SDS011;9177;49.156;8.142;2022-08-19T08:24:13;8.00;;;7.30;;
18100;SDS011;9177;49.156;8.142;2022-08-19T08:26:40;8.60;;;7.78;;
18100;SDS011;9177;49.156;8.142;2022-08-19T08:29:08;8.43;;;7.65;;
18100;SDS011;9177;49.156;8.142;2022-08-19T08:31:37;9.13;;;8.23;;
18100;SDS011;9177;49.156;8.142;2022-08-19T08:34:06;10.05;;;8.57;;
18100;SDS011;9177;49.156;8.142;2022-08-19T08:36:35;9.50;;;8.63;;
18100;SDS011;9177;49.156;8.142;2022-08-19T08:39:07;8.43;;;7.57;;
18100;SDS011;9177;49.156;8.142;2022-08-19T08:41:34;8.20;;;7.30;;
18100;SDS011;9177;49.156;8.142;2022-08-19T08:44:10;8.20;;;7.50;;
18100;SDS011;9177;49.156;8.142;2022-08-19T08:46:41;8.55;;;7.75;;
18100;SDS011;9177;49.156;8.142;2022-08-19T08:49:16;8.02;;;7.40;;
18100;SDS011;9177;49.156;8.142;2022-08-19T08:51:58;8.23;;;7.20;;
18100;SDS011;9177;49.156;8.142;2022-08-19T08:54:32;7.05;;;6.45;;
18100;SDS011;9177;49.156;8.142;2022-08-19T08:57:02;7.65;;;7.05;;
18100;SDS011;9177;49.156;8.142;2022-08-19T08:59:33;7.97;;;7.28;;
18100;SDS011;9177;49.156;8.142;2022-08-19T09:02:02;7.78;;;7.07;;
18100;SDS011;9177;49.156;8.142;2022-08-19T09:04:29;7.68;;;7.07;;
18100;SDS011;9177;49.156;8.142;2022-08-19T09:06:58;7.20;;;6.60;;
18100;SDS011;9177;49.156;8.142;2022-08-19T09:09:39;7.78;;;6.53;;
18100;SDS011;9177;49.156;8.142;2022-08-19T09:12:09;8.18;;;7.47;;
18100;SDS011;9177;49.156;8.142;2022-08-19T09:14:45;7.82;;;7.05;;
18100;SDS011;9177;49.156;8.142;2022-08-19T09:17:16;8.52;;;7.82;;
18100;SDS011;9177;49.156;8.142;2022-08-19T09:19:48;7.93;;;7.32;;
18100;SDS011;9177;49.156;8.142;2022-08-19T09:22:17;8.50;;;7.68;;
18100;SDS011;9177;49.156;8.142;2022-08-19T09:24:48;8.80;;;7.28;;
18100;SDS011;9177;49.156;8.142;2022-08-19T09:27:15;8.15;;;7.45;;
18100;SDS011;9177;49.156;8.142;2022-08-19T09:29:42;7.57;;;6.97;;
18100;SDS011;9177;49.156;8.142;2022-08-19T09:32:09;7.90;;;7.18;;
18100;SDS011;9177;49.156;8.142;2022-08-19T09:34:36;7.45;;;6.75;;
18100;SDS011;9177;49.156;8.142;2022-08-19T09:37:03;6.97;;;6.40;;
18100;SDS011;9177;49.156;8.142;2022-08-19T09:39:31;6.85;;;6.28;;
18100;SDS011;9177;49.156;8.142;2022-08-19T09:42:00;7.30;;;6.78;;
18100;SDS011;9177;49.156;8.142;2022-08-19T09:44:28;6.57;;;5.97;;
18100;SDS011;9177;49.156;8.142;2022-08-19T09:46:55;6.72;;;6.22;;
18100;SDS011;9177;49.156;8.142;2022-08-19T09:49:22;6.70;;;6.07;;
18100;SDS011;9177;49.156;8.142;2022-08-19T09:51:49;6.63;;;6.10;;
18100;SDS011;9177;49.156;8.142;2022-08-19T09:54:18;6.20;;;5.80;;
18100;SDS011;9177;49.156;8.142;2022-08-19T09:56:45;6.22;;;5.72;;
18100;SDS011;9177;49.156;8.142;2022-08-19T09:59:14;6.25;;;5.82;;
18100;SDS011;9177;49.156;8.142;2022-08-19T10:01:41;5.82;;;5.28;;
18100;SDS011;9177;49.156;8.142;2022-08-19T10:04:08;6.20;;;5.70;;
18100;SDS011;9177;49.156;8.142;2022-08-19T10:06:36;6.35;;;5.85;;
18100;SDS011;9177;49.156;8.142;2022-08-19T10:09:05;5.80;;;5.30;;
18100;SDS011;9177;49.156;8.142;2022-08-19T10:11:35;6.55;;;6.05;;
18100;SDS011;9177;49.156;8.142;2022-08-19T10:14:03;6.82;;;6.22;;
18100;SDS011;9177;49.156;8.142;2022-08-19T10:16:33;5.85;;;5.35;;
18100;SDS011;9177;49.156;8.142;2022-08-19T10:19:02;6.18;;;5.72;;
18100;SDS011;9177;49.156;8.142;2022-08-19T10:21:30;5.93;;;5.53;;
18100;SDS011;9177;49.156;8.142;2022-08-19T10:24:02;6.20;;;5.60;;
18100;SDS011;9177;49.156;8.142;2022-08-19T10:26:31;6.43;;;5.82;;
18100;SDS011;9177;49.156;8.142;2022-08-19T10:29:01;5.90;;;5.40;;
18100;SDS011;9177;49.156;8.142;2022-08-19T10:31:30;6.22;;;5.72;;
18100;SDS011;9177;49.156;8.142;2022-08-19T10:33:59;5.82;;;5.32;;
18100;SDS011;9177;49.156;8.142;2022-08-19T10:36:28;6.38;;;5.88;;
18100;SDS011;9177;49.156;8.142;2022-08-19T10:38:57;5.35;;;4.85;;
18100;SDS011;9177;49.156;8.142;2022-08-19T10:41:27;5.50;;;5.10;;
18100;SDS011;9177;49.156;8.142;2022-08-19T10:43:57;5.90;;;5.40;;
18100;SDS011;9177;49.156;8.142;2022-08-19T10:46:27;5.20;;;4.90;;
18100;SDS011;9177;49.156;8.142;2022-08-19T10:48:58;5.63;;;5.22;;
18100;SDS011;9177;49.156;8.142;2022-08-19T10:51:26;6.07;;;5.63;;
18100;SDS011;9177;49.156;8.142;2022-08-19T10:54:16;5.38;;;4.90;;
18100;SDS011;9177;49.156;8.142;2022-08-19T10:56:43;5.45;;;5.05;;
18100;SDS011;9177;49.156;8.142;2022-08-19T10:59:20;5.22;;;4.82;;
18100;SDS011;9177;49.156;8.142;2022-08-19T11:01:49;5.43;;;5.03;;
18100;SDS011;9177;49.156;8.142;2022-08-19T11:04:19;5.93;;;5.53;;
18100;SDS011;9177;49.156;8.142;2022-08-19T11:06:47;5.38;;;4.97;;
18100;SDS011;9177;49.156;8.142;2022-08-19T11:09:15;5.47;;;5.07;;
18100;SDS011;9177;49.156;8.142;2022-08-19T11:11:43;5.50;;;5.10;;
18100;SDS011;9177;49.156;8.142;2022-08-19T11:14:12;5.38;;;4.97;;
18100;SDS011;9177;49.156;8.142;2022-08-19T11:16:40;5.47;;;5.07;;
18100;SDS011;9177;49.156;8.142;2022-08-19T11:19:09;5.40;;;5.00;;
18100;SDS011;9177;49.156;8.142;2022-08-19T11:21:39;5.40;;;5.00;;
18100;SDS011;9177;49.156;8.142;2022-08-19T11:24:08;5.57;;;5.13;;
18100;SDS011;9177;49.156;8.142;2022-08-19T11:26:41;5.68;;;5.28;;
18100;SDS011;9177;49.156;8.142;2022-08-19T11:29:11;6.10;;;5.65;;
18100;SDS011;9177;49.156;8.142;2022-08-19T11:31:39;5.72;;;5.28;;
18100;SDS011;9177;49.156;8.142;2022-08-19T11:34:08;6.15;;;5.75;;
18100;SDS011;9177;49.156;8.142;2022-08-19T11:36:41;6.72;;;6.15;;
18100;SDS011;9177;49.156;8.142;2022-08-19T11:39:11;6.18;;;5.68;;
18100;SDS011;9177;49.156;8.142;2022-08-19T11:41:40;6.18;;;5.68;;
18100;SDS011;9177;49.156;8.142;2022-08-19T11:44:06;5.95;;;5.50;;
18100;SDS011;9177;49.156;8.142;2022-08-19T11:46:34;6.03;;;5.60;;
18100;SDS011;9177;49.156;8.142;2022-08-19T11:49:02;5.93;;;5.45;;
18100;SDS011;9177;49.156;8.142;2022-08-19T11:51:34;6.38;;;5.88;;
18100;SDS011;9177;49.156;8.142;2022-08-19T11:54:04;5.68;;;5.30;;
18100;SDS011;9177;49.156;8.142;2022-08-19T11:56:32;5.45;;;5.05;;
18100;SDS011;9177;49.156;8.142;2022-08-19T11:59:00;5.95;;;5.47;;
18100;SDS011;9177;49.156;8.142;2022-08-19T12:01:28;5.65;;;5.35;;
18100;SDS011;9177;49.156;8.142;2022-08-19T12:03:58;5.40;;;5.00;;
18100;SDS011;9177;49.156;8.142;2022-08-19T12:06:26;5.50;;;5.10;;
18100;SDS011;9177;49.156;8.142;2022-08-19T12:08:57;6.03;;;5.53;;
18100;SDS011;9177;49.156;8.142;2022-08-19T12:11:27;5.13;;;4.82;;
18100;SDS011;9177;49.156;8.142;2022-08-19T12:13:55;5.00;;;4.70;;
18100;SDS011;9177;49.156;8.142;2022-08-19T12:16:22;4.97;;;4.68;;
18100;SDS011;9177;49.156;8.142;2022-08-19T12:18:52;4.88;;;4.57;;
18100;SDS011;9177;49.156;8.142;2022-08-19T12:21:20;4.95;;;4.20;;
18100;SDS011;9177;49.156;8.142;2022-08-19T12:23:48;4.55;;;4.25;;
18100;SDS011;9177;49.156;8.142;2022-08-19T12:26:16;4.55;;;4.25;;
18100;SDS011;9177;49.156;8.142;2022-08-19T12:28:45;4.72;;;4.43;;
18100;SDS011;9177;49.156;8.142;2022-08-19T12:31:13;6.68;;;6.13;;
18100;SDS011;9177;49.156;8.142;2022-08-19T12:33:41;5.70;;;5.30;;
18100;SDS011;9177;49.156;8.142;2022-08-19T12:36:09;5.85;;;5.38;;
18100;SDS011;9177;49.156;8.142;2022-08-19T12:38:38;5.63;;;5.22;;
18100;SDS011;9177;49.156;8.142;2022-08-19T12:41:06;5.90;;;5.50;;
18100;SDS011;9177;49.156;8.142;2022-08-19T12:43:35;5.75;;;5.25;;
18100;SDS011;9177;49.156;8.142;2022-08-19T12:46:05;5.10;;;4.70;;
18100;SDS011;9177;49.156;8.142;2022-08-19T12:48:33;5.32;;;4.93;;
18100;SDS011;9177;49.156;8.142;2022-08-19T12:51:00;4.88;;;4.57;;
18100;SDS011;9177;49.156;8.142;2022-08-19T12:53:31;5.47;;;4.97;;
18100;SDS011;9177;49.156;8.142;2022-08-19T12:55:58;5.38;;;5.05;;
18100;SDS011;9177;49.156;8.142;2022-08-19T12:58:25;5.20;;;4.75;;
18100;SDS011;9177;49.156;8.142;2022-08-19T13:00:53;5.22;;;4.80;;
18100;SDS011;9177;49.156;8.142;2022-08-19T13:03:21;5.05;;;4.72;;
18100;SDS011;9177;49.156;8.142;2022-08-19T13:05:54;4.97;;;4.60;;
18100;SDS011;9177;49.156;8.142;2022-08-19T13:08:20;4.63;;;4.32;;
18100;SDS011;9177;49.156;8.142;2022-08-19T13:10:47;4.60;;;4.20;;
18100;SDS011;9177;49.156;8.142;2022-08-19T13:13:14;4.90;;;4.50;;
18100;SDS011;9177;49.156;8.142;2022-08-19T13:15:42;4.82;;;4.38;;
18100;SDS011;9177;49.156;8.142;2022-08-19T13:18:10;4.15;;;3.85;;
18100;SDS011;9177;49.156;8.142;2022-08-19T13:20:40;4.57;;;4.18;;
18100;SDS011;9177;49.156;8.142;2022-08-19T13:23:07;4.25;;;3.85;;
18100;SDS011;9177;49.156;8.142;2022-08-19T13:25:34;4.40;;;4.00;;
18100;SDS011;9177;49.156;8.142;2022-08-19T13:28:02;4.47;;;4.18;;
18100;SDS011;9177;49.156;8.142;2022-08-19T13:30:31;4.20;;;3.80;;
18100;SDS011;9177;49.156;8.142;2022-08-19T13:33:16;4.60;;;4.30;;
18100;SDS011;9177;49.156;8.142;2022-08-19T13:35:47;4.22;;;3.92;;
18100;SDS011;9177;49.156;8.142;2022-08-19T13:38:16;3.90;;;3.60;;
18100;SDS011;9177;49.156;8.142;2022-08-19T13:40:45;4.30;;;4.00;;
18100;SDS011;9177;49.156;8.142;2022-08-19T13:43:17;3.70;;;3.50;;
18100;SDS011;9177;49.156;8.142;2022-08-19T13:45:45;4.50;;;4.20;;
18100;SDS011;9177;49.156;8.142;2022-08-19T13:48:12;3.90;;;3.60;;
18100;SDS011;9177;49.156;8.142;2022-08-19T13:50:41;4.63;;;3.90;;
18100;SDS011;9177;49.156;8.142;2022-08-19T13:53:13;4.00;;;3.70;;
18100;SDS011;9177;49.156;8.142;2022-08-19T13:55:42;3.50;;;3.20;;
18100;SDS011;9177;49.156;8.142;2022-08-19T13:58:10;3.88;;;3.58;;
18100;SDS011;9177;49.156;8.142;2022-08-19T14:00:39;4.05;;;3.75;;
18100;SDS011;9177;49.156;8.142;2022-08-19T14:03:08;3.83;;;3.53;;
18100;SDS011;9177;49.156;8.142;2022-08-19T14:05:36;4.15;;;3.85;;
18100;SDS011;9177;49.156;8.142;2022-08-19T14:08:03;4.00;;;3.70;;
18100;SDS011;9177;49.156;8.142;2022-08-19T14:10:32;4.78;;;4.38;;
18100;SDS011;9177;49.156;8.142;2022-08-19T14:13:00;4.45;;;4.05;;
18100;SDS011;9177;49.156;8.142;2022-08-19T14:15:28;4.50;;;4.10;;
18100;SDS011;9177;49.156;8.142;2022-08-19T14:17:56;4.57;;;4.18;;
18100;SDS011;9177;49.156;8.142;2022-08-19T14:20:24;4.15;;;3.67;;
18100;SDS011;9177;49.156;8.142;2022-08-19T14:22:51;4.07;;;3.78;;
18100;SDS011;9177;49.156;8.142;2022-08-19T14:25:19;3.88;;;3.58;;
18100;SDS011;9177;49.156;8.142;2022-08-19T14:27:49;4.55;;;4.10;;
18100;SDS011;9177;49.156;8.142;2022-08-19T14:30:18;3.83;;;3.50;;
18100;SDS011;9177;49.156;8.142;2022-08-19T14:32:47;3.83;;;3.53;;
18100;SDS011;9177;49.156;8.142;2022-08-19T14:35:15;4.13;;;3.83;;
18100;SDS011;9177;49.156;8.142;2022-08-19T14:37:43;4.05;;;3.75;;
18100;SDS011;9177;49.156;8.142;2022-08-19T14:40:12;4.20;;;3.90;;
18100;SDS011;9177;49.156;8.142;2022-08-19T14:42:41;4.15;;;3.85;;
18100;SDS011;9177;49.156;8.142;2022-08-19T14:45:09;4.43;;;3.88;;
18100;SDS011;9177;49.156;8.142;2022-08-19T14:47:37;3.97;;;3.58;;
18100;SDS011;9177;49.156;8.142;2022-08-19T14:50:05;4.03;;;3.72;;
18100;SDS011;9177;49.156;8.142;2022-08-19T14:52:33;3.85;;;3.55;;
18100;SDS011;9177;49.156;8.142;2022-08-19T14:55:00;3.65;;;3.35;;
18100;SDS011;9177;49.156;8.142;2022-08-19T14:57:27;4.18;;;3.80;;
18100;SDS011;9177;49.156;8.142;2022-08-19T14:59:53;3.75;;;3.28;;
18100;SDS011;9177;49.156;8.142;2022-08-19T15:02:23;3.78;;;3.47;;